sensor_id;sensor_type;location;lat;lon;timestamp;P1;durP1;ratioP1;P2;durP2;ratioP2
7503;SDS011;3793;48.136;11.536;2022-08-07T00:02:23;11.02;;;9.85;;
7503;SDS011;3793;48.136;11.536;2022-08-07T00:04:50;10.23;;;9.18;;
7503;SDS011;3793;48.136;11.536;2022-08-07T00:07:17;10.27;;;9.27;;
7503;SDS011;3793;48.136;11.536;2022-08-07T00:09:46;11.40;;;9.35;;
7503;SDS011;3793;48.136;11.536;2022-08-07T00:12:13;10.65;;;9.52;;
7503;SDS011;3793;48.136;11.536;2022-08-07T00:14:43;9.90;;;8.75;;
7503;SDS011;3793;48.136;11.536;2022-08-07T00:17:10;7.75;;;6.93;;
7503;SDS011;3793;48.136;11.536;2022-08-07T00:19:39;10.38;;;7.75;;
7503;SDS011;3793;48.136;11.536;2022-08-07T00:22:06;9.82;;;8.43;;
7503;SDS011;3793;48.136;11.536;2022-08-07T00:24:36;9.02;;;7.85;;
7503;SDS011;3793;48.136;11.536;2022-08-07T00:27:04;9.05;;;7.40;;
7503;SDS011;3793;48.136;11.536;2022-08-07T00:29:32;8.82;;;7.35;;
7503;SDS011;3793;48.136;11.536;2022-08-07T00:32:04;8.65;;;6.63;;
7503;SDS011;3793;48.136;11.536;2022-08-07T00:34:32;8.30;;;6.57;;
7503;SDS011;3793;48.136;11.536;2022-08-07T00:36:59;7.68;;;6.75;;
7503;SDS011;3793;48.136;11.536;2022-08-07T00:39:26;8.20;;;6.55;;
7503;SDS011;3793;48.136;11.536;2022-08-07T00:41:53;6.90;;;5.85;;
7503;SDS011;3793;48.136;11.536;2022-08-07T00:44:21;6.80;;;6.10;;
7503;SDS011;3793;48.136;11.536;2022-08-07T00:46:51;7.80;;;5.57;;
7503;SDS011;3793;48.136;11.536;2022-08-07T00:49:19;7.45;;;5.50;;
7503;SDS011;3793;48.136;11.536;2022-08-07T00:51:47;7.47;;;5.50;;
7503;SDS011;3793;48.136;11.536;2022-08-07T00:54:14;5.53;;;4.97;;
7503;SDS011;3793;48.136;11.536;2022-08-07T00:56:41;6.97;;;5.85;;
7503;SDS011;3793;48.136;11.536;2022-08-07T00:59:08;6.00;;;5.10;;
7503;SDS011;3793;48.136;11.536;2022-08-07T01:01:36;5.50;;;4.90;;
7503;SDS011;3793;48.136;11.536;2022-08-07T01:04:04;6.75;;;5.50;;
7503;SDS011;3793;48.136;11.536;2022-08-07T01:06:33;7.05;;;4.82;;
7503;SDS011;3793;48.136;11.536;2022-08-07T01:09:00;6.05;;;3.97;;
7503;SDS011;3793;48.136;11.536;2022-08-07T01:11:27;6.40;;;4.65;;
7503;SDS011;3793;48.136;11.536;2022-08-07T01:13:54;5.25;;;4.75;;
7503;SDS011;3793;48.136;11.536;2022-08-07T01:16:21;6.47;;;4.95;;
7503;SDS011;3793;48.136;11.536;2022-08-07T01:18:49;5.97;;;4.85;;
7503;SDS011;3793;48.136;11.536;2022-08-07T01:21:17;5.05;;;4.30;;
7503;SDS011;3793;48.136;11.536;2022-08-07T01:23:48;5.05;;;4.55;;
7503;SDS011;3793;48.136;11.536;2022-08-07T01:26:17;5.32;;;4.50;;
7503;SDS011;3793;48.136;11.536;2022-08-07T01:28:46;5.53;;;4.95;;
7503;SDS011;3793;48.136;11.536;2022-08-07T01:31:16;7.88;;;4.72;;
7503;SDS011;3793;48.136;11.536;2022-08-07T01:33:43;6.80;;;4.20;;
7503;SDS011;3793;48.136;11.536;2022-08-07T01:36:22;7.05;;;4.97;;
7503;SDS011;3793;48.136;11.536;2022-08-07T01:38:50;6.53;;;4.80;;
7503;SDS011;3793;48.136;11.536;2022-08-07T01:41:22;6.53;;;5.22;;
7503;SDS011;3793;48.136;11.536;2022-08-07T01:43:50;8.38;;;4.38;;
7503;SDS011;3793;48.136;11.536;2022-08-07T01:46:19;5.65;;;5.10;;
7503;SDS011;3793;48.136;11.536;2022-08-07T01:48:47;5.25;;;4.50;;
7503;SDS011;3793;48.136;11.536;2022-08-07T01:51:16;5.70;;;4.93;;
7503;SDS011;3793;48.136;11.536;2022-08-07T01:53:45;8.45;;;5.53;;
7503;SDS011;3793;48.136;11.536;2022-08-07T01:56:13;5.78;;;5.18;;
7503;SDS011;3793;48.136;11.536;2022-08-07T01:58:41;5.53;;;4.70;;
7503;SDS011;3793;48.136;11.536;2022-08-07T02:01:09;5.45;;;4.93;;
7503;SDS011;3793;48.136;11.536;2022-08-07T02:03:39;5.88;;;5.15;;
7503;SDS011;3793;48.136;11.536;2022-08-07T02:06:08;8.30;;;5.88;;
7503;SDS011;3793;48.136;11.536;2022-08-07T02:08:37;6.60;;;5.45;;
7503;SDS011;3793;48.136;11.536;2022-08-07T02:11:07;6.25;;;5.63;;
7503;SDS011;3793;48.136;11.536;2022-08-07T02:13:34;6.38;;;5.78;;
7503;SDS011;3793;48.136;11.536;2022-08-07T02:16:02;6.40;;;5.70;;
7503;SDS011;3793;48.136;11.536;2022-08-07T02:18:30;6.03;;;5.50;;
7503;SDS011;3793;48.136;11.536;2022-08-07T02:20:58;6.68;;;4.97;;
7503;SDS011;3793;48.136;11.536;2022-08-07T02:23:25;9.32;;;5.70;;
7503;SDS011;3793;48.136;11.536;2022-08-07T02:25:54;6.55;;;5.75;;
7503;SDS011;3793;48.136;11.536;2022-08-07T02:28:26;6.43;;;5.50;;
7503;SDS011;3793;48.136;11.536;2022-08-07T02:30:54;8.10;;;5.22;;
7503;SDS011;3793;48.136;11.536;2022-08-07T02:33:22;6.43;;;5.60;;
7503;SDS011;3793;48.136;11.536;2022-08-07T02:35:54;5.90;;;5.23;;
7503;SDS011;3793;48.136;11.536;2022-08-07T02:38:22;6.53;;;5.83;;
7503;SDS011;3793;48.136;11.536;2022-08-07T02:40:50;7.17;;;6.03;;
7503;SDS011;3793;48.136;11.536;2022-08-07T02:43:18;7.27;;;6.10;;
7503;SDS011;3793;48.136;11.536;2022-08-07T02:45:46;6.80;;;6.00;;
7503;SDS011;3793;48.136;11.536;2022-08-07T02:48:14;7.07;;;5.80;;
7503;SDS011;3793;48.136;11.536;2022-08-07T02:50:43;6.33;;;5.83;;
7503;SDS011;3793;48.136;11.536;2022-08-07T02:53:11;6.27;;;5.67;;
7503;SDS011;3793;48.136;11.536;2022-08-07T02:55:41;6.67;;;6.07;;
7503;SDS011;3793;48.136;11.536;2022-08-07T02:58:11;7.00;;;6.27;;
7503;SDS011;3793;48.136;11.536;2022-08-07T03:00:39;9.50;;;6.53;;
7503;SDS011;3793;48.136;11.536;2022-08-07T03:03:12;7.83;;;7.00;;
7503;SDS011;3793;48.136;11.536;2022-08-07T03:05:45;7.50;;;6.23;;
7503;SDS011;3793;48.136;11.536;2022-08-07T03:08:12;11.00;;;7.07;;
7503;SDS011;3793;48.136;11.536;2022-08-07T03:10:41;8.87;;;5.93;;
7503;SDS011;3793;48.136;11.536;2022-08-07T03:13:10;7.90;;;6.73;;
7503;SDS011;3793;48.136;11.536;2022-08-07T03:15:40;8.73;;;6.90;;
7503;SDS011;3793;48.136;11.536;2022-08-07T03:18:07;7.77;;;6.97;;
7503;SDS011;3793;48.136;11.536;2022-08-07T03:20:35;7.67;;;6.97;;
7503;SDS011;3793;48.136;11.536;2022-08-07T03:23:03;10.37;;;7.70;;
7503;SDS011;3793;48.136;11.536;2022-08-07T03:25:30;7.93;;;6.20;;
7503;SDS011;3793;48.136;11.536;2022-08-07T03:28:01;7.77;;;7.07;;
7503;SDS011;3793;48.136;11.536;2022-08-07T03:30:30;7.17;;;6.47;;
7503;SDS011;3793;48.136;11.536;2022-08-07T03:33:01;8.57;;;7.53;;
7503;SDS011;3793;48.136;11.536;2022-08-07T03:35:29;9.93;;;7.03;;
7503;SDS011;3793;48.136;11.536;2022-08-07T03:38:02;8.50;;;6.93;;
7503;SDS011;3793;48.136;11.536;2022-08-07T03:40:30;9.40;;;7.20;;
7503;SDS011;3793;48.136;11.536;2022-08-07T03:42:57;7.97;;;7.10;;
7503;SDS011;3793;48.136;11.536;2022-08-07T03:45:25;8.00;;;7.20;;
7503;SDS011;3793;48.136;11.536;2022-08-07T03:47:53;7.80;;;6.77;;
7503;SDS011;3793;48.136;11.536;2022-08-07T03:50:20;8.07;;;7.37;;
7503;SDS011;3793;48.136;11.536;2022-08-07T03:52:49;10.03;;;7.47;;
7503;SDS011;3793;48.136;11.536;2022-08-07T03:55:21;10.83;;;7.20;;
7503;SDS011;3793;48.136;11.536;2022-08-07T03:57:49;7.60;;;6.90;;
7503;SDS011;3793;48.136;11.536;2022-08-07T04:00:18;8.63;;;6.33;;
7503;SDS011;3793;48.136;11.536;2022-08-07T04:02:45;7.83;;;7.10;;
7503;SDS011;3793;48.136;11.536;2022-08-07T04:05:12;8.87;;;7.53;;
7503;SDS011;3793;48.136;11.536;2022-08-07T04:07:45;9.93;;;7.80;;
7503;SDS011;3793;48.136;11.536;2022-08-07T04:10:13;7.43;;;6.73;;
7503;SDS011;3793;48.136;11.536;2022-08-07T04:12:45;7.43;;;6.73;;
7503;SDS011;3793;48.136;11.536;2022-08-07T04:15:16;8.10;;;7.27;;
7503;SDS011;3793;48.136;11.536;2022-08-07T04:17:46;9.40;;;7.00;;
7503;SDS011;3793;48.136;11.536;2022-08-07T04:20:13;8.00;;;6.47;;
7503;SDS011;3793;48.136;11.536;2022-08-07T04:22:40;7.27;;;6.57;;
7503;SDS011;3793;48.136;11.536;2022-08-07T04:25:08;7.50;;;6.03;;
7503;SDS011;3793;48.136;11.536;2022-08-07T04:27:35;6.40;;;5.80;;
7503;SDS011;3793;48.136;11.536;2022-08-07T04:30:06;6.50;;;5.93;;
7503;SDS011;3793;48.136;11.536;2022-08-07T04:32:33;6.37;;;5.77;;
7503;SDS011;3793;48.136;11.536;2022-08-07T04:35:01;7.20;;;6.50;;
7503;SDS011;3793;48.136;11.536;2022-08-07T04:37:28;6.60;;;5.53;;
7503;SDS011;3793;48.136;11.536;2022-08-07T04:39:55;6.93;;;5.53;;
7503;SDS011;3793;48.136;11.536;2022-08-07T04:42:21;7.00;;;6.27;;
7503;SDS011;3793;48.136;11.536;2022-08-07T04:44:52;7.00;;;6.30;;
7503;SDS011;3793;48.136;11.536;2022-08-07T04:47:21;8.30;;;6.40;;
7503;SDS011;3793;48.136;11.536;2022-08-07T04:49:55;6.27;;;5.47;;
7503;SDS011;3793;48.136;11.536;2022-08-07T04:52:28;6.23;;;5.60;;
7503;SDS011;3793;48.136;11.536;2022-08-07T04:54:59;7.47;;;6.10;;
7503;SDS011;3793;48.136;11.536;2022-08-07T04:57:31;7.13;;;5.93;;
7503;SDS011;3793;48.136;11.536;2022-08-07T05:00:03;6.20;;;5.60;;
7503;SDS011;3793;48.136;11.536;2022-08-07T05:02:33;6.23;;;5.63;;
7503;SDS011;3793;48.136;11.536;2022-08-07T05:05:02;6.77;;;6.07;;
7503;SDS011;3793;48.136;11.536;2022-08-07T05:07:31;6.87;;;5.57;;
7503;SDS011;3793;48.136;11.536;2022-08-07T05:10:03;6.80;;;6.10;;
7503;SDS011;3793;48.136;11.536;2022-08-07T05:12:34;6.17;;;5.57;;
7503;SDS011;3793;48.136;11.536;2022-08-07T05:15:04;5.80;;;5.13;;
7503;SDS011;3793;48.136;11.536;2022-08-07T05:17:42;5.40;;;4.90;;
7503;SDS011;3793;48.136;11.536;2022-08-07T05:20:09;5.67;;;5.00;;
7503;SDS011;3793;48.136;11.536;2022-08-07T05:22:37;7.80;;;5.03;;
7503;SDS011;3793;48.136;11.536;2022-08-07T05:25:04;5.20;;;4.63;;
7503;SDS011;3793;48.136;11.536;2022-08-07T05:27:32;8.27;;;5.20;;
7503;SDS011;3793;48.136;11.536;2022-08-07T05:29:58;7.70;;;5.10;;
7503;SDS011;3793;48.136;11.536;2022-08-07T05:32:25;5.37;;;4.87;;
7503;SDS011;3793;48.136;11.536;2022-08-07T05:34:53;5.40;;;4.90;;
7503;SDS011;3793;48.136;11.536;2022-08-07T05:37:21;4.87;;;4.43;;
7503;SDS011;3793;48.136;11.536;2022-08-07T05:39:48;4.80;;;4.40;;
7503;SDS011;3793;48.136;11.536;2022-08-07T05:42:15;4.83;;;4.43;;
7503;SDS011;3793;48.136;11.536;2022-08-07T05:44:41;4.90;;;4.47;;
7503;SDS011;3793;48.136;11.536;2022-08-07T05:47:08;4.03;;;3.73;;
7503;SDS011;3793;48.136;11.536;2022-08-07T05:49:36;5.03;;;4.30;;
7503;SDS011;3793;48.136;11.536;2022-08-07T05:52:05;6.70;;;4.10;;
7503;SDS011;3793;48.136;11.536;2022-08-07T05:54:32;4.60;;;3.97;;
7503;SDS011;3793;48.136;11.536;2022-08-07T05:56:59;4.50;;;4.10;;
7503;SDS011;3793;48.136;11.536;2022-08-07T05:59:26;4.60;;;3.63;;
7503;SDS011;3793;48.136;11.536;2022-08-07T06:01:54;5.00;;;4.13;;
7503;SDS011;3793;48.136;11.536;2022-08-07T06:04:22;4.10;;;3.50;;
7503;SDS011;3793;48.136;11.536;2022-08-07T06:06:52;4.47;;;3.70;;
7503;SDS011;3793;48.136;11.536;2022-08-07T06:09:20;6.00;;;3.63;;
7503;SDS011;3793;48.136;11.536;2022-08-07T06:11:50;3.80;;;3.30;;
7503;SDS011;3793;48.136;11.536;2022-08-07T06:14:17;4.43;;;3.13;;
7503;SDS011;3793;48.136;11.536;2022-08-07T06:16:44;4.77;;;3.37;;
7503;SDS011;3793;48.136;11.536;2022-08-07T06:19:14;3.80;;;3.25;;
7503;SDS011;3793;48.136;11.536;2022-08-07T06:21:48;4.07;;;3.07;;
7503;SDS011;3793;48.136;11.536;2022-08-07T06:24:15;6.60;;;3.10;;
7503;SDS011;3793;48.136;11.536;2022-08-07T06:26:44;4.27;;;3.13;;
7503;SDS011;3793;48.136;11.536;2022-08-07T06:29:10;4.55;;;2.63;;
7503;SDS011;3793;48.136;11.536;2022-08-07T06:31:37;3.63;;;2.90;;
7503;SDS011;3793;48.136;11.536;2022-08-07T06:34:04;3.67;;;3.20;;
7503;SDS011;3793;48.136;11.536;2022-08-07T06:36:30;3.35;;;3.10;;
7503;SDS011;3793;48.136;11.536;2022-08-07T06:38:57;4.72;;;2.75;;
7503;SDS011;3793;48.136;11.536;2022-08-07T06:41:25;5.70;;;3.00;;
7503;SDS011;3793;48.136;11.536;2022-08-07T06:43:57;4.37;;;2.90;;
7503;SDS011;3793;48.136;11.536;2022-08-07T06:46:33;4.60;;;2.85;;
7503;SDS011;3793;48.136;11.536;2022-08-07T06:48:59;5.43;;;2.80;;
7503;SDS011;3793;48.136;11.536;2022-08-07T06:51:26;3.08;;;2.78;;
7503;SDS011;3793;48.136;11.536;2022-08-07T06:53:56;2.97;;;2.55;;
7503;SDS011;3793;48.136;11.536;2022-08-07T06:56:27;3.30;;;3.00;;
7503;SDS011;3793;48.136;11.536;2022-08-07T06:59:10;3.03;;;2.72;;
7503;SDS011;3793;48.136;11.536;2022-08-07T07:01:41;4.13;;;2.75;;
7503;SDS011;3793;48.136;11.536;2022-08-07T07:04:09;4.13;;;3.03;;
7503;SDS011;3793;48.136;11.536;2022-08-07T07:06:36;4.32;;;2.50;;
7503;SDS011;3793;48.136;11.536;2022-08-07T07:09:19;4.15;;;3.00;;
7503;SDS011;3793;48.136;11.536;2022-08-07T07:11:56;2.53;;;2.28;;
7503;SDS011;3793;48.136;11.536;2022-08-07T07:14:25;4.05;;;2.70;;
7503;SDS011;3793;48.136;11.536;2022-08-07T07:16:53;4.22;;;2.80;;
7503;SDS011;3793;48.136;11.536;2022-08-07T07:19:25;2.78;;;2.30;;
7503;SDS011;3793;48.136;11.536;2022-08-07T07:21:54;2.92;;;2.67;;
7503;SDS011;3793;48.136;11.536;2022-08-07T07:24:20;4.20;;;2.53;;
7503;SDS011;3793;48.136;11.536;2022-08-07T07:26:48;2.70;;;2.50;;
7503;SDS011;3793;48.136;11.536;2022-08-07T07:29:17;3.80;;;2.30;;
7503;SDS011;3793;48.136;11.536;2022-08-07T07:31:47;3.63;;;2.40;;
7503;SDS011;3793;48.136;11.536;2022-08-07T07:34:25;2.53;;;2.33;;
7503;SDS011;3793;48.136;11.536;2022-08-07T07:37:04;5.57;;;2.17;;
7503;SDS011;3793;48.136;11.536;2022-08-07T07:39:31;2.50;;;2.30;;
7503;SDS011;3793;48.136;11.536;2022-08-07T07:41:58;3.90;;;2.40;;
7503;SDS011;3793;48.136;11.536;2022-08-07T07:44:26;2.92;;;2.53;;
7503;SDS011;3793;48.136;11.536;2022-08-07T07:46:59;3.03;;;2.60;;
7503;SDS011;3793;48.136;11.536;2022-08-07T07:49:27;2.42;;;2.22;;
7503;SDS011;3793;48.136;11.536;2022-08-07T07:51:55;2.50;;;2.30;;
7503;SDS011;3793;48.136;11.536;2022-08-07T07:54:22;2.25;;;2.03;;
7503;SDS011;3793;48.136;11.536;2022-08-07T07:56:49;3.95;;;2.75;;
7503;SDS011;3793;48.136;11.536;2022-08-07T07:59:18;3.85;;;1.90;;
7503;SDS011;3793;48.136;11.536;2022-08-07T08:01:46;2.40;;;2.20;;
7503;SDS011;3793;48.136;11.536;2022-08-07T08:04:15;3.70;;;2.13;;
7503;SDS011;3793;48.136;11.536;2022-08-07T08:06:43;2.83;;;2.20;;
7503;SDS011;3793;48.136;11.536;2022-08-07T08:09:10;3.08;;;2.53;;
7503;SDS011;3793;48.136;11.536;2022-08-07T08:11:37;2.20;;;2.00;;
7503;SDS011;3793;48.136;11.536;2022-08-07T08:14:04;2.90;;;2.42;;
7503;SDS011;3793;48.136;11.536;2022-08-07T08:16:33;2.85;;;2.05;;
7503;SDS011;3793;48.136;11.536;2022-08-07T08:19:00;3.67;;;1.90;;
7503;SDS011;3793;48.136;11.536;2022-08-07T08:21:29;4.00;;;2.30;;
7503;SDS011;3793;48.136;11.536;2022-08-07T08:24:14;3.42;;;1.90;;
7503;SDS011;3793;48.136;11.536;2022-08-07T08:26:59;2.28;;;1.98;;
7503;SDS011;3793;48.136;11.536;2022-08-07T08:29:35;1.90;;;1.80;;
7503;SDS011;3793;48.136;11.536;2022-08-07T08:32:06;2.20;;;1.85;;
7503;SDS011;3793;48.136;11.536;2022-08-07T08:34:37;2.97;;;1.90;;
7503;SDS011;3793;48.136;11.536;2022-08-07T08:37:08;2.13;;;1.80;;
7503;SDS011;3793;48.136;11.536;2022-08-07T08:39:38;3.70;;;1.98;;
7503;SDS011;3793;48.136;11.536;2022-08-07T08:42:06;3.13;;;2.00;;
7503;SDS011;3793;48.136;11.536;2022-08-07T08:44:38;2.00;;;1.80;;
7503;SDS011;3793;48.136;11.536;2022-08-07T08:47:07;2.45;;;1.88;;
7503;SDS011;3793;48.136;11.536;2022-08-07T08:49:35;1.70;;;1.60;;
7503;SDS011;3793;48.136;11.536;2022-08-07T08:52:10;3.63;;;2.28;;
7503;SDS011;3793;48.136;11.536;2022-08-07T08:54:42;2.72;;;1.88;;
7503;SDS011;3793;48.136;11.536;2022-08-07T08:57:13;1.98;;;1.85;;
7503;SDS011;3793;48.136;11.536;2022-08-07T08:59:42;2.35;;;2.15;;
7503;SDS011;3793;48.136;11.536;2022-08-07T09:02:12;2.95;;;2.20;;
7503;SDS011;3793;48.136;11.536;2022-08-07T09:04:42;2.17;;;1.98;;
7503;SDS011;3793;48.136;11.536;2022-08-07T09:07:13;2.70;;;2.13;;
7503;SDS011;3793;48.136;11.536;2022-08-07T09:09:51;2.38;;;2.08;;
7503;SDS011;3793;48.136;11.536;2022-08-07T09:12:26;2.97;;;2.00;;
7503;SDS011;3793;48.136;11.536;2022-08-07T09:14:59;3.75;;;1.80;;
7503;SDS011;3793;48.136;11.536;2022-08-07T09:20:17;2.13;;;1.92;;
7503;SDS011;3793;48.136;11.536;2022-08-07T09:22:54;2.10;;;1.90;;
7503;SDS011;3793;48.136;11.536;2022-08-07T09:25:24;3.38;;;2.03;;
7503;SDS011;3793;48.136;11.536;2022-08-07T09:27:54;2.67;;;1.90;;
7503;SDS011;3793;48.136;11.536;2022-08-07T09:30:23;2.25;;;1.90;;
7503;SDS011;3793;48.136;11.536;2022-08-07T09:32:58;3.83;;;2.05;;
7503;SDS011;3793;48.136;11.536;2022-08-07T09:35:34;3.83;;;1.92;;
7503;SDS011;3793;48.136;11.536;2022-08-07T09:38:08;3.08;;;1.90;;
7503;SDS011;3793;48.136;11.536;2022-08-07T09:40:41;3.33;;;2.10;;
7503;SDS011;3793;48.136;11.536;2022-08-07T09:43:15;2.25;;;2.03;;
7503;SDS011;3793;48.136;11.536;2022-08-07T09:45:57;2.33;;;1.85;;
7503;SDS011;3793;48.136;11.536;2022-08-07T09:48:31;2.00;;;1.58;;
7503;SDS011;3793;48.136;11.536;2022-08-07T09:51:03;2.60;;;1.80;;
7503;SDS011;3793;48.136;11.536;2022-08-07T09:53:33;2.17;;;1.75;;
7503;SDS011;3793;48.136;11.536;2022-08-07T09:58:51;2.13;;;1.70;;
7503;SDS011;3793;48.136;11.536;2022-08-07T10:01:29;5.13;;;2.08;;
7503;SDS011;3793;48.136;11.536;2022-08-07T10:04:18;1.80;;;1.65;;
7503;SDS011;3793;48.136;11.536;2022-08-07T10:06:52;2.05;;;1.80;;
7503;SDS011;3793;48.136;11.536;2022-08-07T10:12:33;3.28;;;1.63;;
7503;SDS011;3793;48.136;11.536;2022-08-07T10:15:09;1.95;;;1.58;;
7503;SDS011;3793;48.136;11.536;2022-08-07T10:17:54;2.13;;;1.70;;
7503;SDS011;3793;48.136;11.536;2022-08-07T10:20:24;3.33;;;2.00;;
7503;SDS011;3793;48.136;11.536;2022-08-07T10:23:00;3.47;;;2.03;;
7503;SDS011;3793;48.136;11.536;2022-08-07T10:25:29;2.72;;;1.88;;
7503;SDS011;3793;48.136;11.536;2022-08-07T10:28:10;2.75;;;1.80;;
7503;SDS011;3793;48.136;11.536;2022-08-07T10:30:42;1.90;;;1.70;;
7503;SDS011;3793;48.136;11.536;2022-08-07T10:33:27;2.25;;;1.95;;
7503;SDS011;3793;48.136;11.536;2022-08-07T10:35:59;3.08;;;1.60;;
7503;SDS011;3793;48.136;11.536;2022-08-07T10:38:34;2.47;;;2.05;;
7503;SDS011;3793;48.136;11.536;2022-08-07T10:41:05;2.25;;;1.80;;
7503;SDS011;3793;48.136;11.536;2022-08-07T10:46:01;2.38;;;1.80;;
7503;SDS011;3793;48.136;11.536;2022-08-07T10:48:33;6.93;;;3.50;;
7503;SDS011;3793;48.136;11.536;2022-08-07T10:51:04;3.03;;;1.98;;
7503;SDS011;3793;48.136;11.536;2022-08-07T10:53:33;2.75;;;2.20;;
7503;SDS011;3793;48.136;11.536;2022-08-07T10:56:02;3.50;;;2.13;;
7503;SDS011;3793;48.136;11.536;2022-08-07T10:58:34;2.00;;;1.75;;
7503;SDS011;3793;48.136;11.536;2022-08-07T11:01:11;4.25;;;2.00;;
7503;SDS011;3793;48.136;11.536;2022-08-07T11:03:44;2.22;;;1.80;;
7503;SDS011;3793;48.136;11.536;2022-08-07T11:06:15;1.73;;;1.60;;
7503;SDS011;3793;48.136;11.536;2022-08-07T11:08:48;1.98;;;1.65;;
7503;SDS011;3793;48.136;11.536;2022-08-07T11:11:20;1.92;;;1.70;;
7503;SDS011;3793;48.136;11.536;2022-08-07T11:13:50;4.28;;;1.98;;
7503;SDS011;3793;48.136;11.536;2022-08-07T11:16:21;2.20;;;1.77;;
7503;SDS011;3793;48.136;11.536;2022-08-07T11:18:51;1.65;;;1.55;;
7503;SDS011;3793;48.136;11.536;2022-08-07T11:21:23;3.03;;;1.83;;
7503;SDS011;3793;48.136;11.536;2022-08-07T11:23:58;3.33;;;1.65;;
7503;SDS011;3793;48.136;11.536;2022-08-07T11:26:30;2.00;;;1.80;;
7503;SDS011;3793;48.136;11.536;2022-08-07T11:29:00;2.03;;;1.60;;
7503;SDS011;3793;48.136;11.536;2022-08-07T11:31:30;2.03;;;1.80;;
7503;SDS011;3793;48.136;11.536;2022-08-07T11:33:59;5.63;;;2.03;;
7503;SDS011;3793;48.136;11.536;2022-08-07T11:36:37;3.38;;;1.90;;
7503;SDS011;3793;48.136;11.536;2022-08-07T11:39:16;1.83;;;1.73;;
7503;SDS011;3793;48.136;11.536;2022-08-07T11:41:48;3.30;;;1.90;;
7503;SDS011;3793;48.136;11.536;2022-08-07T11:44:21;3.33;;;1.90;;
7503;SDS011;3793;48.136;11.536;2022-08-07T11:46:55;3.20;;;2.00;;
7503;SDS011;3793;48.136;11.536;2022-08-07T11:49:24;2.15;;;1.83;;
7503;SDS011;3793;48.136;11.536;2022-08-07T11:52:03;2.60;;;1.73;;
7503;SDS011;3793;48.136;11.536;2022-08-07T11:54:40;1.83;;;1.65;;
7503;SDS011;3793;48.136;11.536;2022-08-07T11:57:11;2.45;;;1.65;;
7503;SDS011;3793;48.136;11.536;2022-08-07T11:59:43;2.70;;;2.20;;
7503;SDS011;3793;48.136;11.536;2022-08-07T12:02:18;3.65;;;2.00;;
7503;SDS011;3793;48.136;11.536;2022-08-07T12:04:56;2.10;;;1.77;;
7503;SDS011;3793;48.136;11.536;2022-08-07T12:07:26;4.35;;;2.22;;
7503;SDS011;3793;48.136;11.536;2022-08-07T12:09:56;1.90;;;1.70;;
7503;SDS011;3793;48.136;11.536;2022-08-07T12:12:25;2.83;;;1.60;;
7503;SDS011;3793;48.136;11.536;2022-08-07T12:14:54;3.05;;;1.80;;
7503;SDS011;3793;48.136;11.536;2022-08-07T12:17:26;3.03;;;1.60;;
7503;SDS011;3793;48.136;11.536;2022-08-07T12:19:56;2.50;;;1.55;;
7503;SDS011;3793;48.136;11.536;2022-08-07T12:22:26;3.42;;;1.70;;
7503;SDS011;3793;48.136;11.536;2022-08-07T12:24:56;3.78;;;1.70;;
7503;SDS011;3793;48.136;11.536;2022-08-07T12:27:43;2.75;;;1.50;;
7503;SDS011;3793;48.136;11.536;2022-08-07T12:30:11;3.28;;;2.03;;
7503;SDS011;3793;48.136;11.536;2022-08-07T12:32:41;5.68;;;1.77;;
7503;SDS011;3793;48.136;11.536;2022-08-07T12:35:08;3.00;;;1.58;;
7503;SDS011;3793;48.136;11.536;2022-08-07T12:37:35;3.17;;;1.67;;
7503;SDS011;3793;48.136;11.536;2022-08-07T12:40:04;2.10;;;1.88;;
7503;SDS011;3793;48.136;11.536;2022-08-07T12:42:32;2.42;;;1.80;;
7503;SDS011;3793;48.136;11.536;2022-08-07T12:45:02;2.25;;;1.83;;
7503;SDS011;3793;48.136;11.536;2022-08-07T12:47:31;4.43;;;1.80;;
7503;SDS011;3793;48.136;11.536;2022-08-07T12:50:05;4.25;;;1.40;;
7503;SDS011;3793;48.136;11.536;2022-08-07T12:52:35;3.30;;;2.00;;
7503;SDS011;3793;48.136;11.536;2022-08-07T12:55:06;3.08;;;1.98;;
7503;SDS011;3793;48.136;11.536;2022-08-07T12:57:34;2.97;;;1.80;;
7503;SDS011;3793;48.136;11.536;2022-08-07T13:00:03;4.20;;;1.63;;
7503;SDS011;3793;48.136;11.536;2022-08-07T13:02:38;2.60;;;1.60;;
7503;SDS011;3793;48.136;11.536;2022-08-07T13:05:15;2.60;;;1.70;;
7503;SDS011;3793;48.136;11.536;2022-08-07T13:10:31;2.17;;;1.98;;
7503;SDS011;3793;48.136;11.536;2022-08-07T13:13:09;3.00;;;1.63;;
7503;SDS011;3793;48.136;11.536;2022-08-07T13:15:42;1.90;;;1.77;;
7503;SDS011;3793;48.136;11.536;2022-08-07T13:18:17;2.13;;;1.70;;
7503;SDS011;3793;48.136;11.536;2022-08-07T13:20:48;2.58;;;1.80;;
7503;SDS011;3793;48.136;11.536;2022-08-07T13:23:16;2.15;;;1.55;;
7503;SDS011;3793;48.136;11.536;2022-08-07T13:25:45;1.70;;;1.60;;
7503;SDS011;3793;48.136;11.536;2022-08-07T13:28:16;4.97;;;1.90;;
7503;SDS011;3793;48.136;11.536;2022-08-07T13:30:51;2.53;;;1.50;;
7503;SDS011;3793;48.136;11.536;2022-08-07T13:33:23;1.75;;;1.40;;
7503;SDS011;3793;48.136;11.536;2022-08-07T13:35:53;1.98;;;1.70;;
7503;SDS011;3793;48.136;11.536;2022-08-07T13:38:23;1.88;;;1.55;;
7503;SDS011;3793;48.136;11.536;2022-08-07T13:40:56;1.63;;;1.40;;
7503;SDS011;3793;48.136;11.536;2022-08-07T13:43:26;2.20;;;1.50;;
7503;SDS011;3793;48.136;11.536;2022-08-07T13:45:54;3.22;;;1.50;;
7503;SDS011;3793;48.136;11.536;2022-08-07T13:48:21;1.50;;;1.40;;
7503;SDS011;3793;48.136;11.536;2022-08-07T13:50:49;3.05;;;1.65;;
7503;SDS011;3793;48.136;11.536;2022-08-07T13:53:20;2.65;;;1.40;;
7503;SDS011;3793;48.136;11.536;2022-08-07T13:55:47;1.95;;;1.40;;
7503;SDS011;3793;48.136;11.536;2022-08-07T13:58:14;2.40;;;1.50;;
7503;SDS011;3793;48.136;11.536;2022-08-07T14:00:59;2.38;;;1.70;;
7503;SDS011;3793;48.136;11.536;2022-08-07T14:03:27;2.47;;;1.55;;
7503;SDS011;3793;48.136;11.536;2022-08-07T14:05:55;2.80;;;1.38;;
7503;SDS011;3793;48.136;11.536;2022-08-07T14:08:24;3.10;;;1.80;;
7503;SDS011;3793;48.136;11.536;2022-08-07T14:10:52;2.20;;;1.48;;
7503;SDS011;3793;48.136;11.536;2022-08-07T14:13:21;2.67;;;1.70;;
7503;SDS011;3793;48.136;11.536;2022-08-07T14:15:52;1.60;;;1.40;;
7503;SDS011;3793;48.136;11.536;2022-08-07T14:18:20;1.65;;;1.45;;
7503;SDS011;3793;48.136;11.536;2022-08-07T14:20:48;1.80;;;1.55;;
7503;SDS011;3793;48.136;11.536;2022-08-07T14:23:15;1.58;;;1.48;;
7503;SDS011;3793;48.136;11.536;2022-08-07T14:25:45;2.75;;;1.40;;
7503;SDS011;3793;48.136;11.536;2022-08-07T14:28:13;2.17;;;1.50;;
7503;SDS011;3793;48.136;11.536;2022-08-07T14:30:44;2.47;;;1.80;;
7503;SDS011;3793;48.136;11.536;2022-08-07T14:33:11;2.65;;;1.88;;
7503;SDS011;3793;48.136;11.536;2022-08-07T14:35:39;2.78;;;2.10;;
7503;SDS011;3793;48.136;11.536;2022-08-07T14:38:06;2.15;;;1.95;;
7503;SDS011;3793;48.136;11.536;2022-08-07T14:40:33;2.58;;;2.10;;
7503;SDS011;3793;48.136;11.536;2022-08-07T14:43:02;4.03;;;2.10;;
7503;SDS011;3793;48.136;11.536;2022-08-07T14:45:31;2.00;;;1.80;;
7503;SDS011;3793;48.136;11.536;2022-08-07T14:47:59;2.42;;;1.88;;
7503;SDS011;3793;48.136;11.536;2022-08-07T14:50:26;1.98;;;1.75;;
7503;SDS011;3793;48.136;11.536;2022-08-07T14:52:54;2.72;;;1.70;;
7503;SDS011;3793;48.136;11.536;2022-08-07T14:55:26;2.00;;;1.75;;
7503;SDS011;3793;48.136;11.536;2022-08-07T14:57:55;3.03;;;1.60;;
7503;SDS011;3793;48.136;11.536;2022-08-07T15:00:25;2.38;;;1.70;;
7503;SDS011;3793;48.136;11.536;2022-08-07T15:02:52;1.67;;;1.58;;
7503;SDS011;3793;48.136;11.536;2022-08-07T15:05:19;2.45;;;1.58;;
7503;SDS011;3793;48.136;11.536;2022-08-07T15:07:46;3.83;;;1.92;;
7503;SDS011;3793;48.136;11.536;2022-08-07T15:10:17;2.95;;;1.63;;
7503;SDS011;3793;48.136;11.536;2022-08-07T15:12:44;2.83;;;1.83;;
7503;SDS011;3793;48.136;11.536;2022-08-07T15:15:12;2.00;;;1.77;;
7503;SDS011;3793;48.136;11.536;2022-08-07T15:17:42;3.35;;;2.03;;
7503;SDS011;3793;48.136;11.536;2022-08-07T15:20:10;2.42;;;1.85;;
7503;SDS011;3793;48.136;11.536;2022-08-07T15:22:41;1.98;;;1.88;;
7503;SDS011;3793;48.136;11.536;2022-08-07T15:25:10;2.42;;;1.92;;
7503;SDS011;3793;48.136;11.536;2022-08-07T15:27:38;3.90;;;1.90;;
7503;SDS011;3793;48.136;11.536;2022-08-07T15:30:06;3.63;;;1.80;;
7503;SDS011;3793;48.136;11.536;2022-08-07T15:32:33;2.55;;;2.28;;